Time;durP1;ratioP1;P1;durP2;ratioP2;P2;SDS_P1;SDS_P2;PMS_P1;PMS_P2;Temp;Humidity;BMP_temperature;BMP_pressure;BME280_temperature;BME280_humidity;BME280_pressure;Samples;Min_cycle;Max_cycle;Signal;HPM_P1;HPM_P2
2021/07/21 00:00:40;;;;;;;25.63;20.67;;;22.60;99.90;;;;;;5014789;28;20066;-86
2021/07/21 00:03:06;;;;;;;25.55;20.42;;;22.60;99.90;;;;;;5014195;28;20045;-86
2021/07/21 00:05:36;;;;;;;26.30;21.23;;;22.50;99.90;;;;;;5015099;28;20548;-86
2021/07/21 00:08:01;;;;;;;25.90;19.95;;;22.50;99.90;;;;;;5014451;28;20030;-86
2021/07/21 00:10:31;;;;;;;25.33;19.05;;;22.40;99.90;;;;;;5012800;28;20033;-86
2021/07/21 00:15:57;;;;;;;26.20;19.02;;;22.30;99.90;;;;;;5014543;28;20448;-86
2021/07/21 00:18:37;;;;;;;27.65;19.88;;;22.30;99.90;;;;;;5013823;28;20125;-86
2021/07/21 00:21:03;;;;;;;25.58;19.25;;;22.20;99.90;;;;;;5010996;28;20049;-86
2021/07/21 00:23:30;;;;;;;27.02;19.20;;;22.20;99.90;;;;;;5014287;28;20088;-86
2021/07/21 00:25:56;;;;;;;25.92;18.88;;;22.20;99.90;;;;;;5013825;28;20054;-86
2021/07/21 00:28:22;;;;;;;25.05;19.10;;;22.20;99.90;;;;;;5013558;28;20034;-86
2021/07/21 00:30:48;;;;;;;24.00;18.52;;;22.10;99.90;;;;;;5012570;28;20030;-85
2021/07/21 00:33:15;;;;;;;31.15;19.35;;;22.20;99.90;;;;;;5013918;28;20030;-86
2021/07/21 00:35:41;;;;;;;23.58;18.38;;;22.20;99.90;;;;;;5029160;28;20026;-86
2021/07/21 00:38:06;;;;;;;25.88;19.08;;;22.10;99.90;;;;;;5013825;28;20025;-86
2021/07/21 00:40:32;;;;;;;24.45;19.00;;;22.00;99.90;;;;;;5012307;28;20479;-86
2021/07/21 00:42:59;;;;;;;27.67;19.48;;;21.90;99.90;;;;;;5013013;28;20533;-86
2021/07/21 00:45:25;;;;;;;22.92;17.90;;;21.80;99.90;;;;;;5013187;28;20084;-86
2021/07/21 00:47:50;;;;;;;24.95;18.67;;;21.80;99.90;;;;;;5014045;28;20058;-86
2021/07/21 00:50:16;;;;;;;23.95;18.25;;;21.80;99.90;;;;;;5012060;28;20026;-86
2021/07/21 00:52:43;;;;;;;26.75;18.15;;;21.80;99.90;;;;;;5014116;28;20065;-86
2021/07/21 00:55:12;;;;;;;23.10;17.85;;;21.70;99.90;;;;;;5013415;28;20556;-86
2021/07/21 00:57:39;;;;;;;22.25;17.17;;;21.60;99.90;;;;;;5012931;28;20030;-86
2021/07/21 01:00:11;;;;;;;22.23;16.58;;;21.60;99.90;;;;;;5013204;28;20136;-85
2021/07/21 01:02:38;;;;;;;24.00;18.25;;;21.60;99.90;;;;;;5013582;28;20109;-86
2021/07/21 01:05:08;;;;;;;24.33;17.55;;;21.60;99.90;;;;;;5013491;28;20014;-86
2021/07/21 01:07:35;;;;;;;24.25;18.05;;;21.50;99.90;;;;;;5012924;28;20084;-86
2021/07/21 01:10:02;;;;;;;21.58;16.77;;;21.50;99.90;;;;;;5013381;28;20025;-86
2021/07/21 01:12:38;;;;;;;24.00;17.98;;;21.40;99.90;;;;;;5012885;28;20112;-86
2021/07/21 01:15:16;;;;;;;24.27;18.52;;;21.20;99.90;;;;;;5009854;28;20022;-85
2021/07/21 01:17:51;;;;;;;25.25;18.27;;;21.20;99.90;;;;;;5010886;28;20394;-86
2021/07/21 01:20:31;;;;;;;23.58;18.23;;;21.20;99.90;;;;;;5013187;28;20081;-86
2021/07/21 01:23:23;;;;;;;22.23;16.80;;;21.10;99.90;;;;;;5012919;28;20069;-86
2021/07/21 01:26:10;;;;;;;24.13;18.38;;;21.10;99.90;;;;;;4975413;28;20051;-86
2021/07/21 01:28:40;;;;;;;22.25;17.30;;;21.10;99.90;;;;;;4975499;28;20474;-85
2021/07/21 01:31:09;;;;;;;23.05;16.60;;;21.00;99.90;;;;;;4975671;28;20511;-85
2021/07/21 01:33:38;;;;;;;23.80;16.73;;;20.70;99.90;;;;;;4971610;28;20535;-86
2021/07/21 01:36:11;;;;;;;25.48;17.90;;;20.80;99.90;;;;;;4975438;28;20109;-85
2021/07/21 01:38:41;;;;;;;25.73;18.52;;;20.80;99.90;;;;;;4976065;28;20057;-85
2021/07/21 01:41:28;;;;;;;20.88;16.23;;;20.80;99.90;;;;;;4975157;28;20030;-86
2021/07/21 01:44:09;;;;;;;23.98;16.60;;;20.70;99.90;;;;;;4975033;28;20031;-86
2021/07/21 01:46:35;;;;;;;24.85;16.65;;;20.70;99.90;;;;;;4975439;28;20411;-86
2021/07/21 01:49:02;;;;;;;22.38;16.23;;;20.60;99.90;;;;;;4975399;28;20630;-86
2021/07/21 01:51:31;;;;;;;20.33;16.60;;;20.60;99.90;;;;;;4971333;28;20039;-86
2021/07/21 01:53:57;;;;;;;21.73;17.60;;;20.60;99.90;;;;;;4975370;28;20031;-85
2021/07/21 01:56:25;;;;;;;21.67;17.15;;;20.50;99.90;;;;;;4975185;28;20039;-86
2021/07/21 01:58:55;;;;;;;24.50;18.58;;;20.40;99.90;;;;;;4974940;28;20419;-86
2021/07/21 02:01:27;;;;;;;25.52;18.30;;;20.40;99.90;;;;;;4975533;28;20026;-86
2021/07/21 02:03:56;;;;;;;22.95;17.98;;;20.40;99.90;;;;;;5010520;28;20045;-85
2021/07/21 02:06:22;;;;;;;23.48;16.88;;;20.30;99.90;;;;;;5012311;28;20037;-86
2021/07/21 02:08:49;;;;;;;24.70;17.65;;;20.40;99.90;;;;;;5012521;28;20097;-85
2021/07/21 02:11:15;;;;;;;25.42;18.40;;;20.40;99.90;;;;;;5011595;28;20033;-86
2021/07/21 02:13:42;;;;;;;23.13;18.17;;;20.30;99.90;;;;;;5011906;28;20037;-85
2021/07/21 02:16:08;;;;;;;23.65;18.38;;;20.20;99.90;;;;;;5026934;28;20065;-85
2021/07/21 02:18:35;;;;;;;23.92;18.75;;;20.10;99.90;;;;;;5011962;28;20045;-85
2021/07/21 02:21:03;;;;;;;25.77;19.30;;;20.00;99.90;;;;;;5012596;28;20030;-86
2021/07/21 02:23:30;;;;;;;24.63;18.55;;;19.90;99.90;;;;;;5012141;28;20033;-85
2021/07/21 02:26:00;;;;;;;24.15;18.65;;;19.90;99.90;;;;;;5011323;28;20042;-85
2021/07/21 02:28:25;;;;;;;27.52;19.48;;;20.00;99.90;;;;;;5011502;28;20080;-85
2021/07/21 02:30:54;;;;;;;26.00;18.98;;;20.00;99.90;;;;;;5011865;28;20435;-85
2021/07/21 02:33:32;;;;;;;26.95;18.35;;;20.00;99.90;;;;;;5011709;28;20512;-85
2021/07/21 02:35:59;;;;;;;23.88;18.80;;;20.00;99.90;;;;;;5008002;28;20072;-85
2021/07/21 02:38:25;;;;;;;22.10;17.90;;;20.00;99.90;;;;;;5011600;28;20030;-86
2021/07/21 02:40:51;;;;;;;24.73;19.10;;;20.00;99.90;;;;;;5011664;28;20037;-85
2021/07/21 02:43:17;;;;;;;25.65;18.73;;;19.90;99.90;;;;;;5011238;28;20030;-86
2021/07/21 02:45:43;;;;;;;22.55;18.02;;;19.90;99.90;;;;;;5012401;28;20026;-85
2021/07/21 02:48:08;;;;;;;24.23;17.75;;;19.80;99.90;;;;;;5011921;28;20471;-86
2021/07/21 02:50:35;;;;;;;25.40;17.77;;;19.80;99.90;;;;;;5009790;28;20493;-85
2021/07/21 02:53:12;;;;;;;27.42;18.40;;;19.80;99.90;;;;;;5011935;28;20498;-86
2021/07/21 02:55:56;;;;;;;22.63;17.85;;;19.70;99.90;;;;;;5011001;28;20038;-85
2021/07/21 02:58:40;;;;;;;25.48;18.58;;;19.60;99.90;;;;;;5011648;28;20387;-86
2021/07/21 03:01:07;;;;;;;24.30;17.63;;;19.60;99.90;;;;;;5011299;28;20092;-85
2021/07/21 03:03:35;;;;;;;22.50;18.05;;;19.50;99.90;;;;;;5011514;28;20517;-85
2021/07/21 03:06:05;;;;;;;26.98;18.45;;;19.40;99.90;;;;;;5013733;28;20454;-85
2021/07/21 03:08:31;;;;;;;25.52;18.00;;;19.30;99.90;;;;;;5015020;28;20042;-86
2021/07/21 03:10:59;;;;;;;26.02;18.48;;;19.40;99.90;;;;;;5015653;28;20489;-85
2021/07/21 03:13:58;;;;;;;26.35;18.52;;;19.30;99.90;;;;;;5015053;28;20072;-85
2021/07/21 03:16:32;;;;;;;25.58;18.40;;;19.20;99.90;;;;;;5014804;28;20486;-85
2021/07/21 03:19:01;;;;;;;22.85;17.92;;;19.10;99.90;;;;;;5014938;28;20521;-85
2021/07/21 03:21:29;;;;;;;22.67;17.85;;;19.20;99.90;;;;;;5014866;28;20080;-85
2021/07/21 03:23:55;;;;;;;26.55;19.30;;;19.20;99.90;;;;;;5015491;28;20454;-85
2021/07/21 03:26:22;;;;;;;22.75;17.42;;;19.20;99.90;;;;;;5014438;28;20085;-85
2021/07/21 03:28:49;;;;;;;25.02;17.52;;;19.20;99.90;;;;;;5014518;28;20641;-85
2021/07/21 03:31:18;;;;;;;23.52;17.60;;;19.20;99.90;;;;;;5014778;28;20041;-85
2021/07/21 03:33:45;;;;;;;25.25;18.73;;;19.10;99.90;;;;;;5014845;28;20044;-86
2021/07/21 03:36:12;;;;;;;24.45;17.38;;;19.10;99.90;;;;;;5015160;28;20355;-86
2021/07/21 03:38:39;;;;;;;22.10;17.27;;;19.10;99.90;;;;;;5030465;28;20413;-85
2021/07/21 03:41:05;;;;;;;21.35;17.33;;;19.10;99.90;;;;;;5014098;28;20037;-85
2021/07/21 03:43:31;;;;;;;22.65;18.00;;;19.10;99.90;;;;;;5014849;28;20490;-86
2021/07/21 03:46:00;;;;;;;24.17;17.90;;;19.00;99.90;;;;;;5014701;28;20053;-85
2021/07/21 03:48:27;;;;;;;23.65;17.83;;;19.00;99.90;;;;;;5014786;28;20107;-85
2021/07/21 03:50:58;;;;;;;22.67;17.25;;;19.00;99.90;;;;;;5015032;28;20478;-86
2021/07/21 03:53:25;;;;;;;24.17;16.85;;;19.00;99.90;;;;;;5014249;28;20034;-85
2021/07/21 03:55:52;;;;;;;23.25;17.38;;;19.00;99.90;;;;;;5014554;28;20030;-85
2021/07/21 03:58:18;;;;;;;24.38;17.10;;;18.90;99.90;;;;;;5014131;28;20037;-85
2021/07/21 04:00:44;;;;;;;25.48;18.55;;;18.80;99.90;;;;;;5014767;28;20104;-86
2021/07/21 04:03:11;;;;;;;23.17;17.55;;;18.80;99.90;;;;;;5014746;28;20026;-85
2021/07/21 04:05:38;;;;;;;23.55;17.88;;;18.70;99.90;;;;;;5014904;28;20025;-86
2021/07/21 04:08:04;;;;;;;23.65;17.48;;;18.70;99.90;;;;;;5012228;28;20045;-85
2021/07/21 04:10:31;;;;;;;24.95;17.60;;;18.60;99.90;;;;;;5014128;28;20034;-85
2021/07/21 04:13:02;;;;;;;21.52;16.92;;;18.60;99.90;;;;;;5014771;28;20108;-86
2021/07/21 04:15:29;;;;;;;22.27;15.77;;;18.50;99.90;;;;;;5013913;28;20026;-85
2021/07/21 04:17:56;;;;;;;23.20;16.52;;;18.60;99.90;;;;;;5013791;28;20425;-85
2021/07/21 04:20:23;;;;;;;22.75;17.50;;;18.60;99.90;;;;;;5013638;28;20033;-85
2021/07/21 04:22:49;;;;;;;21.67;16.58;;;18.70;99.90;;;;;;5013583;28;20022;-85
2021/07/21 04:25:16;;;;;;;25.00;17.50;;;18.60;99.90;;;;;;5013634;28;20054;-85
2021/07/21 04:27:43;;;;;;;23.38;18.25;;;18.70;99.90;;;;;;5014412;28;20042;-85
2021/07/21 04:30:10;;;;;;;23.00;17.27;;;18.70;99.90;;;;;;5012724;28;20026;-85
2021/07/21 04:32:37;;;;;;;22.67;16.48;;;18.70;99.90;;;;;;5013198;28;20501;-85
2021/07/21 04:35:07;;;;;;;25.65;16.48;;;18.80;99.90;;;;;;5013329;28;20573;-85
2021/07/21 04:37:36;;;;;;;23.38;17.15;;;18.80;99.90;;;;;;5013459;28;20038;-85
2021/07/21 04:40:03;;;;;;;23.17;17.02;;;18.80;99.90;;;;;;5013632;28;20030;-85
2021/07/21 04:42:29;;;;;;;23.98;16.50;;;18.70;99.90;;;;;;5013411;28;20029;-85
2021/07/21 04:44:56;;;;;;;21.60;17.00;;;18.60;99.90;;;;;;5013989;28;20504;-85
2021/07/21 04:47:23;;;;;;;21.75;16.88;;;18.60;99.90;;;;;;5011960;28;20104;-86
2021/07/21 04:49:52;;;;;;;23.63;16.35;;;18.60;99.90;;;;;;5013258;28;20466;-84
2021/07/21 04:52:20;;;;;;;23.70;16.77;;;18.60;99.90;;;;;;5028234;28;20030;-85
2021/07/21 04:54:45;;;;;;;23.48;16.35;;;18.70;99.90;;;;;;5013402;28;20076;-85
2021/07/21 04:57:11;;;;;;;21.30;16.52;;;18.80;99.90;;;;;;5013824;28;20030;-85
2021/07/21 04:59:37;;;;;;;23.42;16.35;;;18.80;99.90;;;;;;5013323;28;20032;-85
2021/07/21 05:02:05;;;;;;;22.63;16.33;;;18.80;99.90;;;;;;5013369;28;20099;-85
2021/07/21 05:04:34;;;;;;;28.10;17.00;;;18.90;99.90;;;;;;5012678;28;20036;-85
2021/07/21 05:07:00;;;;;;;23.90;16.55;;;19.00;99.90;;;;;;5012755;28;20041;-85
2021/07/21 05:09:25;;;;;;;23.63;16.92;;;19.00;99.90;;;;;;5012590;28;20021;-87
2021/07/21 05:11:51;;;;;;;20.88;15.98;;;19.10;99.90;;;;;;5013756;28;20037;-89
2021/07/21 05:14:16;;;;;;;20.48;15.65;;;19.20;99.90;;;;;;5012495;28;20466;-92
2021/07/21 05:16:42;;;;;;;22.88;16.00;;;19.20;99.90;;;;;;5013517;28;20022;-91
2021/07/21 05:19:11;;;;;;;21.60;15.65;;;19.30;99.90;;;;;;5012063;28;20479;-92
2021/07/21 05:21:37;;;;;;;21.20;16.40;;;19.50;99.90;;;;;;5013472;28;20026;-91
2021/07/21 05:24:03;;;;;;;19.27;15.55;;;19.60;99.90;;;;;;5013763;28;20052;-93
2021/07/21 05:26:28;;;;;;;22.98;16.80;;;19.70;99.90;;;;;;5013394;28;20120;-91
2021/07/21 05:28:54;;;;;;;22.63;16.33;;;19.90;99.90;;;;;;5011238;28;20121;-92
2021/07/21 05:31:20;;;;;;;22.10;16.92;;;20.00;99.90;;;;;;5012897;28;20038;-90
2021/07/21 05:33:45;;;;;;;26.67;16.73;;;20.00;99.90;;;;;;5012566;28;20133;-87
2021/07/21 05:36:11;;;;;;;26.40;16.85;;;20.10;99.90;;;;;;5011656;28;20050;-88
2021/07/21 05:38:37;;;;;;;23.95;16.35;;;20.10;99.90;;;;;;5012581;28;20038;-88
2021/07/21 05:41:05;;;;;;;23.23;16.15;;;20.10;99.90;;;;;;5012524;28;20824;-88
2021/07/21 05:43:31;;;;;;;24.40;16.95;;;20.10;99.90;;;;;;5012105;28;20121;-88
2021/07/21 05:45:58;;;;;;;21.50;16.27;;;20.20;99.90;;;;;;5012540;28;20077;-88
2021/07/21 05:48:24;;;;;;;24.42;16.58;;;20.30;99.90;;;;;;5012667;28;20053;-88
2021/07/21 05:50:49;;;;;;;23.27;16.55;;;20.40;99.90;;;;;;5012397;28;20057;-89
2021/07/21 05:53:15;;;;;;;21.83;16.80;;;20.30;99.90;;;;;;5010871;28;20488;-89
2021/07/21 05:55:40;;;;;;;23.92;17.40;;;20.40;99.90;;;;;;5011840;28;20088;-89
2021/07/21 05:58:08;;;;;;;21.92;15.95;;;20.40;99.90;;;;;;5012114;28;20100;-90
2021/07/21 06:00:34;;;;;;;23.23;15.80;;;20.40;99.90;;;;;;5012977;28;20037;-88
2021/07/21 06:02:59;;;;;;;21.13;15.65;;;20.30;99.90;;;;;;5012727;28;20022;-85
2021/07/21 06:05:25;;;;;;;20.90;15.68;;;20.30;99.90;;;;;;5011507;28;20489;-85
2021/07/21 06:07:51;;;;;;;21.58;16.67;;;20.40;99.90;;;;;;5011895;28;20113;-85
2021/07/21 06:10:16;;;;;;;23.05;16.17;;;20.50;99.90;;;;;;5012010;28;20034;-85
2021/07/21 06:12:42;;;;;;;23.65;16.88;;;20.50;99.90;;;;;;5012420;28;20434;-87
2021/07/21 06:15:08;;;;;;;20.92;15.77;;;20.40;99.90;;;;;;5013036;28;20025;-91
2021/07/21 06:17:34;;;;;;;24.58;15.55;;;20.60;99.90;;;;;;5012299;28;20057;-87
2021/07/21 06:20:01;;;;;;;25.10;16.88;;;20.70;99.90;;;;;;5012299;28;20034;-88
2021/07/21 06:22:32;;;;;;;21.20;15.65;;;20.60;99.90;;;;;;5011681;28;20022;-89
2021/07/21 06:24:59;;;;;;;28.42;16.45;;;20.60;99.90;;;;;;5012188;28;20064;-88
2021/07/21 06:27:24;;;;;;;22.77;16.45;;;20.60;99.90;;;;;;5012054;28;20038;-88
2021/07/21 06:29:50;;;;;;;22.80;15.18;;;20.80;99.90;;;;;;5013207;28;20359;-90
2021/07/21 06:32:16;;;;;;;21.40;16.20;;;21.00;99.90;;;;;;5010664;28;20054;-91
2021/07/21 06:34:41;;;;;;;22.00;15.18;;;21.20;99.90;;;;;;5011601;28;20398;-89
2021/07/21 06:37:08;;;;;;;25.65;16.48;;;21.40;99.90;;;;;;5011669;28;20497;-88
2021/07/21 06:39:34;;;;;;;21.27;15.35;;;21.60;99.90;;;;;;5011979;28;20040;-90
2021/07/21 06:42:00;;;;;;;19.05;15.13;;;21.70;99.90;;;;;;5012510;28;20486;-85
2021/07/21 06:44:25;;;;;;;22.30;15.57;;;21.80;99.90;;;;;;5011321;28;20034;-83
2021/07/21 06:46:51;;;;;;;22.15;15.57;;;21.80;99.90;;;;;;5010952;28;20502;-85
2021/07/21 06:49:18;;;;;;;23.48;15.88;;;21.90;99.90;;;;;;5009693;28;20028;-84
2021/07/21 06:51:43;;;;;;;20.42;14.95;;;21.80;99.90;;;;;;5011190;28;20052;-84
2021/07/21 06:54:09;;;;;;;23.80;16.58;;;21.80;99.90;;;;;;5010570;28;20483;-84
2021/07/21 06:56:35;;;;;;;22.55;15.02;;;21.80;99.90;;;;;;5011677;28;20026;-84
2021/07/21 06:59:00;;;;;;;20.80;14.63;;;22.10;99.90;;;;;;5011355;28;20026;-84
2021/07/21 07:01:26;;;;;;;20.42;15.18;;;22.20;99.90;;;;;;5011044;28;20038;-84
2021/07/21 07:03:53;;;;;;;20.75;15.25;;;22.30;99.90;;;;;;5011565;28;20478;-84
2021/07/21 07:06:18;;;;;;;23.58;14.98;;;22.30;99.90;;;;;;5011173;28;20034;-84
2021/07/21 07:08:44;;;;;;;22.88;15.73;;;22.40;99.90;;;;;;5010707;28;20041;-84
2021/07/21 07:11:10;;;;;;;17.20;14.25;;;22.60;99.90;;;;;;5010980;28;20514;-84
2021/07/21 07:13:37;;;;;;;23.83;15.38;;;22.70;99.90;;;;;;5011470;28;20030;-84
2021/07/21 07:16:04;;;;;;;20.20;14.95;;;22.60;99.90;;;;;;5011036;28;20113;-84
2021/07/21 07:18:30;;;;;;;20.63;15.20;;;22.50;99.90;;;;;;5010975;28;20535;-85
2021/07/21 07:20:56;;;;;;;19.13;14.95;;;22.40;99.90;;;;;;5012212;28;20034;-84
2021/07/21 07:23:23;;;;;;;21.02;15.15;;;22.10;99.90;;;;;;5010956;28;20038;-84
2021/07/21 07:25:49;;;;;;;19.00;14.50;;;22.00;99.90;;;;;;5010914;28;20050;-84
2021/07/21 07:28:15;;;;;;;21.70;14.77;;;22.10;99.90;;;;;;5011122;28;20045;-84
2021/07/21 07:30:41;;;;;;;20.10;14.18;;;22.10;99.90;;;;;;5011086;28;20026;-85
2021/07/21 07:33:06;;;;;;;20.65;15.00;;;22.20;99.90;;;;;;5011991;28;20385;-85
2021/07/21 07:35:32;;;;;;;19.80;14.77;;;22.20;99.90;;;;;;5011124;28;20076;-85
2021/07/21 07:37:58;;;;;;;22.05;15.48;;;22.30;99.90;;;;;;5011218;28;20032;-85
2021/07/21 07:40:24;;;;;;;21.27;15.50;;;22.00;99.90;;;;;;5010308;28;20490;-85
2021/07/21 07:42:50;;;;;;;20.35;14.52;;;22.10;99.90;;;;;;5011299;28;20033;-85
2021/07/21 07:45:16;;;;;;;19.65;14.55;;;22.30;99.90;;;;;;5026561;28;20090;-85
2021/07/21 07:47:43;;;;;;;22.40;14.95;;;22.50;99.90;;;;;;5011947;28;20030;-86
2021/07/21 07:50:10;;;;;;;21.20;14.68;;;22.60;99.90;;;;;;5009667;28;20037;-86
2021/07/21 07:52:37;;;;;;;19.73;14.55;;;22.50;99.90;;;;;;5012067;28;20030;-86
2021/07/21 07:55:05;;;;;;;21.38;15.18;;;22.30;99.90;;;;;;5014827;28;20068;-86
2021/07/21 07:57:32;;;;;;;20.40;13.90;;;22.40;99.90;;;;;;5013605;28;20026;-85
2021/07/21 07:59:58;;;;;;;18.98;14.45;;;22.40;99.90;;;;;;5014699;28;20057;-86
2021/07/21 08:02:24;;;;;;;21.33;14.75;;;22.70;99.90;;;;;;5014716;28;20026;-87
2021/07/21 08:04:49;;;;;;;18.90;14.27;;;22.80;99.90;;;;;;5014657;28;20033;-86
2021/07/21 08:07:15;;;;;;;20.40;14.63;;;22.60;99.90;;;;;;5014682;28;20175;-86
2021/07/21 08:09:41;;;;;;;21.25;15.07;;;22.70;99.90;;;;;;5014072;28;20022;-86
2021/07/21 08:12:07;;;;;;;26.27;14.23;;;22.70;99.90;;;;;;5014206;28;20449;-86
2021/07/21 08:14:33;;;;;;;20.92;15.35;;;22.70;99.90;;;;;;5012745;28;20030;-86
2021/07/21 08:16:59;;;;;;;19.35;14.73;;;23.00;99.90;;;;;;5013934;28;20520;-85
2021/07/21 08:19:25;;;;;;;22.83;16.23;;;23.30;99.90;;;;;;5014058;28;20077;-86
2021/07/21 08:21:51;;;;;;;21.45;15.00;;;23.30;99.90;;;;;;5014746;28;20040;-85
2021/07/21 08:24:18;;;;;;;20.52;14.85;;;23.30;99.90;;;;;;5014024;28;20136;-86
2021/07/21 08:26:44;;;;;;;20.15;15.63;;;23.40;99.90;;;;;;5014839;28;20033;-85
2021/07/21 08:29:11;;;;;;;21.90;15.23;;;23.30;99.90;;;;;;5013513;28;20032;-86
2021/07/21 08:31:37;;;;;;;24.33;16.02;;;23.60;99.90;;;;;;5014389;28;20414;-86
2021/07/21 08:34:05;;;;;;;19.35;14.75;;;23.70;99.90;;;;;;5013822;28;20032;-86
2021/07/21 08:36:33;;;;;;;20.58;15.10;;;23.50;99.90;;;;;;5014188;28;20117;-86
2021/07/21 08:38:59;;;;;;;23.85;15.70;;;23.50;99.90;;;;;;5014196;28;20449;-85
2021/07/21 08:41:28;;;;;;;22.20;14.95;;;23.60;99.90;;;;;;5013496;28;20080;-86
2021/07/21 08:43:54;;;;;;;21.75;15.20;;;23.90;99.90;;;;;;5013729;28;20026;-85
2021/07/21 08:46:21;;;;;;;21.23;15.55;;;23.40;99.90;;;;;;5013360;28;20029;-86
2021/07/21 08:48:51;;;;;;;21.00;16.17;;;23.40;99.90;;;;;;5013979;28;20037;-86
2021/07/21 08:51:19;;;;;;;18.60;15.15;;;23.80;99.90;;;;;;5013734;28;20036;-86
2021/07/21 08:53:46;;;;;;;18.90;15.18;;;24.10;99.90;;;;;;5014250;28;20117;-86
2021/07/21 08:56:11;;;;;;;31.92;16.60;;;23.90;99.90;;;;;;5013073;28;20037;-86
2021/07/21 08:58:37;;;;;;;24.40;16.77;;;24.10;99.90;;;;;;5012958;28;20018;-86
2021/07/21 09:01:03;;;;;;;20.23;16.13;;;24.10;99.90;;;;;;5012580;28;20064;-86
2021/07/21 09:03:30;;;;;;;24.73;16.52;;;24.10;99.90;;;;;;5013259;28;20493;-86
2021/07/21 09:05:56;;;;;;;21.52;17.10;;;24.20;99.90;;;;;;5014330;28;20022;-86
2021/07/21 09:08:22;;;;;;;21.15;15.73;;;24.20;99.90;;;;;;5013086;28;20558;-88
2021/07/21 09:10:48;;;;;;;22.38;15.70;;;24.20;99.90;;;;;;5012784;28;20378;-86
2021/07/21 09:13:15;;;;;;;21.55;16.55;;;24.30;99.90;;;;;;5011569;28;20026;-86
2021/07/21 09:15:46;;;;;;;21.42;16.48;;;24.30;99.90;;;;;;5013818;28;20115;-86
2021/07/21 09:18:15;;;;;;;19.05;15.77;;;24.30;99.90;;;;;;5013567;28;20041;-86
2021/07/21 09:21:03;;;;;;;20.92;16.20;;;24.20;99.90;;;;;;5012811;28;20034;-86
2021/07/21 09:23:38;;;;;;;19.35;15.73;;;24.10;99.90;;;;;;5012818;28;20022;-86
2021/07/21 09:26:04;;;;;;;20.88;16.38;;;24.40;99.90;;;;;;5013036;28;20044;-86
2021/07/21 09:28:38;;;;;;;21.70;16.33;;;24.30;99.90;;;;;;5027667;28;20405;-86
2021/07/21 09:31:04;;;;;;;20.88;15.57;;;24.60;99.90;;;;;;5012696;28;20033;-86
2021/07/21 09:33:30;;;;;;;23.42;15.88;;;24.70;99.90;;;;;;5013386;28;20040;-86
2021/07/21 09:35:57;;;;;;;22.90;17.23;;;24.70;99.90;;;;;;5028932;28;20048;-86
2021/07/21 09:38:25;;;;;;;21.25;15.98;;;24.80;99.90;;;;;;5012756;28;20445;-86
2021/07/21 09:41:01;;;;;;;18.80;15.73;;;25.10;99.90;;;;;;5012497;28;20026;-86
2021/07/21 09:43:31;;;;;;;23.00;15.95;;;25.40;99.90;;;;;;5012940;28;20445;-86
2021/07/21 09:46:09;;;;;;;25.17;16.48;;;25.80;99.90;;;;;;5013003;28;20402;-85
2021/07/21 09:48:40;;;;;;;23.75;17.10;;;25.70;99.90;;;;;;5012479;28;20124;-86
2021/07/21 09:51:07;;;;;;;22.60;16.75;;;25.70;99.90;;;;;;5009331;28;20030;-86
2021/07/21 09:53:40;;;;;;;20.95;16.60;;;25.60;99.90;;;;;;5012857;28;20030;-85
2021/07/21 09:56:06;;;;;;;19.13;16.02;;;25.50;99.90;;;;;;5011928;28;20520;-86
2021/07/21 09:58:36;;;;;;;24.17;17.17;;;25.50;99.90;;;;;;5012475;28;20022;-86
2021/07/21 10:01:03;;;;;;;22.17;16.85;;;25.80;99.90;;;;;;5012782;28;20026;-86
2021/07/21 10:03:34;;;;;;;20.40;16.83;;;26.00;99.90;;;;;;5012302;28;20026;-86
2021/07/21 10:06:11;;;;;;;25.40;17.30;;;25.80;99.90;;;;;;5012803;28;20034;-86
2021/07/21 10:08:43;;;;;;;23.65;17.17;;;25.50;99.90;;;;;;5012200;28;20041;-86
2021/07/21 10:11:28;;;;;;;23.42;16.27;;;25.70;99.90;;;;;;5011971;28;20029;-86
2021/07/21 10:14:02;;;;;;;22.20;17.02;;;25.90;99.90;;;;;;5012685;28;20033;-86
2021/07/21 10:16:43;;;;;;;23.42;16.40;;;26.20;99.90;;;;;;5011407;28;20022;-87
2021/07/21 10:19:15;;;;;;;21.85;17.02;;;26.90;99.90;;;;;;5012556;28;20029;-86
2021/07/21 10:21:44;;;;;;;22.02;15.85;;;26.60;99.90;;;;;;4997160;28;20363;-87
2021/07/21 10:24:11;;;;;;;20.55;16.95;;;26.90;99.90;;;;;;5012455;28;20395;-86
2021/07/21 10:26:38;;;;;;;28.77;17.55;;;27.10;99.90;;;;;;5010543;28;20034;-87
2021/07/21 10:29:04;;;;;;;22.80;17.48;;;26.90;99.90;;;;;;5012068;28;20456;-86
2021/07/21 10:31:30;;;;;;;22.70;17.27;;;27.00;99.90;;;;;;5011981;28;20091;-87
2021/07/21 10:33:56;;;;;;;28.23;19.20;;;27.20;99.90;;;;;;5012468;28;20061;-87
2021/07/21 10:36:23;;;;;;;22.38;17.83;;;26.90;99.90;;;;;;5222934;22;20048;-84
2021/07/21 10:38:49;;;;;;;22.45;17.13;;;27.00;99.90;;;;;;5052827;28;20576;-84
2021/07/21 10:41:15;;;;;;;23.50;17.63;;;27.30;99.90;;;;;;5035884;28;20025;-85
2021/07/21 10:43:55;;;;;;;27.17;17.75;;;27.30;99.90;;;;;;5034574;28;20029;-84
2021/07/21 10:46:30;;;;;;;21.02;16.77;;;27.50;99.90;;;;;;5051696;28;20127;-84
2021/07/21 10:49:22;;;;;;;20.48;17.30;;;27.40;99.90;;;;;;5051915;28;20021;-84
2021/07/21 11:00:21;;;;;;;19.83;17.65;;;27.70;99.90;;;;;;5047875;28;20105;-84
2021/07/21 11:02:49;;;;;;;25.05;18.17;;;28.30;99.90;;;;;;5053193;28;20104;-84
2021/07/21 11:06:00;;;;;;;22.83;17.67;;;27.80;99.90;;;;;;5051547;28;20025;-84
2021/07/21 11:08:27;;;;;;;24.05;17.73;;;27.70;99.90;;;;;;4947010;28;20559;-84
2021/07/21 11:10:55;;;;;;;27.48;19.88;;;27.80;99.90;;;;;;4946917;28;20031;-84
2021/07/21 11:13:30;;;;;;;24.20;18.65;;;28.30;99.90;;;;;;4948121;28;20040;-84
2021/07/21 11:15:57;;;;;;;22.10;17.33;;;28.80;99.90;;;;;;4949369;28;20439;-85
2021/07/21 11:18:26;;;;;;;20.58;17.73;;;29.10;99.90;;;;;;4949765;28;20112;-86
2021/07/21 11:21:06;;;;;;;22.73;18.63;;;29.10;99.90;;;;;;4949446;28;20036;-88
2021/07/21 11:23:48;;;;;;;23.05;18.50;;;29.10;99.90;;;;;;4941998;28;20063;-85
2021/07/21 11:26:34;;;;;;;22.65;17.77;;;29.30;99.90;;;;;;4944899;28;20081;-87
2021/07/21 11:29:29;;;;;;;23.10;18.50;;;29.20;99.90;;;;;;4951403;28;20035;-87
2021/07/21 11:31:55;;;;;;;22.92;18.27;;;29.10;99.90;;;;;;4950649;28;20035;-86
2021/07/21 11:34:30;;;;;;;21.83;18.20;;;29.40;99.90;;;;;;4950877;28;20050;-85
2021/07/21 11:36:57;;;;;;;22.23;17.95;;;30.10;99.90;;;;;;4937511;28;20042;-86
2021/07/21 11:39:50;;;;;;;21.63;18.05;;;30.20;99.90;;;;;;5006982;28;20076;-87
2021/07/21 11:42:31;;;;;;;23.00;17.77;;;30.50;99.90;;;;;;5031218;28;20393;-86
2021/07/21 11:45:03;;;;;;;22.77;17.98;;;31.00;99.90;;;;;;5054024;28;20017;-85
2021/07/21 11:47:39;;;;;;;20.60;17.40;;;31.50;99.90;;;;;;5055081;28;20047;-86
2021/07/21 11:50:10;;;;;;;21.35;17.50;;;32.90;99.90;;;;;;5054507;28;20032;-85
2021/07/21 11:52:36;;;;;;;20.48;17.73;;;35.20;99.90;;;;;;5036523;28;20029;-86
2021/07/21 11:55:03;;;;;;;20.52;17.55;;;37.40;99.90;;;;;;5055129;28;20526;-86
2021/07/21 11:57:29;;;;;;;22.10;17.58;;;37.00;99.90;;;;;;5054740;28;20116;-85
2021/07/21 11:59:56;;;;;;;21.63;17.55;;;34.20;99.90;;;;;;5054253;28;20109;-86
2021/07/21 12:02:25;;;;;;;20.55;17.80;;;32.90;99.90;;;;;;5054704;28;20021;-86
2021/07/21 12:04:52;;;;;;;19.30;17.15;;;34.00;99.90;;;;;;5054670;28;20068;-86
2021/07/21 12:07:20;;;;;;;19.90;17.67;;;35.30;99.90;;;;;;5054564;28;20032;-86
2021/07/21 12:09:48;;;;;;;19.83;17.73;;;36.10;99.90;;;;;;5054643;28;20021;-86
2021/07/21 12:12:16;;;;;;;21.60;18.02;;;36.70;99.90;;;;;;5053593;28;20495;-86
2021/07/21 12:14:54;;;;;;;19.77;17.73;;;38.20;99.90;;;;;;5055371;28;20528;-88
2021/07/21 12:17:22;;;;;;;18.88;16.98;;;38.50;99.90;;;;;;5053897;28;20032;-89
2021/07/21 12:20:12;;;;;;;19.02;16.98;;;39.10;99.90;;;;;;5054492;28;20025;-88
2021/07/21 12:22:40;;;;;;;20.27;18.08;;;40.40;99.90;;;;;;5053838;28;20392;-89
2021/07/21 12:25:18;;;;;;;19.88;17.83;;;39.70;99.90;;;;;;5054770;28;20017;-96
2021/07/21 12:27:46;;;;;;;20.20;18.08;;;40.80;99.90;;;;;;5047793;28;20028;-93
2021/07/21 12:30:17;;;;;;;19.73;17.67;;;40.40;99.90;;;;;;5076160;28;20020;-91
2021/07/21 12:32:45;;;;;;;19.85;17.85;;;40.10;99.90;;;;;;5055186;28;20435;-91
2021/07/21 12:35:12;;;;;;;18.92;17.02;;;39.30;99.90;;;;;;5037150;28;20086;-90
2021/07/21 12:37:43;;;;;;;20.25;17.67;;;40.50;99.90;;;;;;5055846;28;20116;-88
2021/07/21 12:40:30;;;;;;;19.42;17.42;;;41.00;99.90;;;;;;5054115;28;20035;-89
2021/07/21 12:42:59;;;;;;;18.63;16.70;;;41.90;99.90;;;;;;5040287;28;20024;-89
2021/07/21 12:45:27;;;;;;;19.73;17.73;;;42.60;99.90;;;;;;5053885;28;20036;-89
2021/07/21 12:47:56;;;;;;;19.75;17.65;;;42.60;99.90;;;;;;5053433;28;20119;-88